createdAt,value
2019-03-08T00:02:18.735Z,45.50
2019-03-08T00:04:47.416Z,45.60
2019-03-08T00:07:16.449Z,45.50
2019-03-08T00:09:45.448Z,45.60
2019-03-08T00:12:14.236Z,45.60
2019-03-08T00:14:42.904Z,45.60
2019-03-08T00:17:11.588Z,45.60
2019-03-08T00:19:40.804Z,45.60
2019-03-08T00:22:09.491Z,45.70
2019-03-08T00:24:38.164Z,45.70
2019-03-08T00:27:06.862Z,45.60
2019-03-08T00:29:35.532Z,45.60
2019-03-08T00:32:04.539Z,45.70
2019-03-08T00:34:33.212Z,45.70
2019-03-08T00:37:01.900Z,45.80
2019-03-08T00:39:30.567Z,45.70
2019-03-08T00:41:59.253Z,45.80
2019-03-08T00:44:27.923Z,45.70
2019-03-08T00:46:56.617Z,45.70
2019-03-08T00:49:25.287Z,45.80
2019-03-08T00:51:54.344Z,45.70
2019-03-08T00:54:23.337Z,45.70
2019-03-08T00:56:52.044Z,45.80
2019-03-08T00:59:20.731Z,45.80
2019-03-08T01:01:49.447Z,45.90
2019-03-08T01:04:18.115Z,45.80
2019-03-08T01:06:47.117Z,45.80
2019-03-08T01:09:15.788Z,45.70
2019-03-08T01:11:45.404Z,45.70
2019-03-08T01:14:14.376Z,45.70
2019-03-08T01:16:43.064Z,45.70
2019-03-08T01:19:11.740Z,45.70
2019-03-08T01:21:40.424Z,45.70
2019-03-08T01:24:09.299Z,45.80
2019-03-08T01:26:38.612Z,45.80
2019-03-08T01:29:07.292Z,45.80
2019-03-08T01:31:35.984Z,45.80
2019-03-08T01:34:04.660Z,45.80
2019-03-08T01:36:33.676Z,45.80
2019-03-08T01:39:02.566Z,45.80
2019-03-08T01:41:31.551Z,45.80
2019-03-08T01:44:00.853Z,45.80
2019-03-08T01:46:29.540Z,45.80
2019-03-08T01:48:58.207Z,45.80
2019-03-08T01:51:26.906Z,45.80
2019-03-08T01:53:55.571Z,45.80
2019-03-08T01:56:24.581Z,45.80
2019-03-08T01:58:53.232Z,45.50
2019-03-08T02:01:21.911Z,45.90
2019-03-08T02:03:50.854Z,45.80
2019-03-08T02:06:19.847Z,45.70
2019-03-08T02:08:48.508Z,45.90
2019-03-08T02:11:17.170Z,45.80
2019-03-08T02:13:45.827Z,45.90
2019-03-08T02:16:14.503Z,45.80
2019-03-08T02:18:43.480Z,45.80
2019-03-08T02:21:12.156Z,45.80
2019-03-08T02:23:40.819Z,45.80
2019-03-08T02:26:09.852Z,45.90
2019-03-08T02:28:38.504Z,45.70
2019-03-08T02:31:07.632Z,45.80
2019-03-08T02:33:36.623Z,45.80
2019-03-08T02:36:05.301Z,45.80
2019-03-08T02:38:33.955Z,45.80
2019-03-08T02:41:02.972Z,45.90
2019-03-08T02:43:31.627Z,45.80
2019-03-08T02:46:00.567Z,46.50
2019-03-08T02:48:29.227Z,45.90
2019-03-08T02:50:58.655Z,45.90
2019-03-08T02:53:27.318Z,45.80
2019-03-08T02:55:56.304Z,45.80
2019-03-08T02:58:24.966Z,45.90
2019-03-08T03:00:53.879Z,45.90
2019-03-08T03:03:22.467Z,45.90
2019-03-08T03:05:51.695Z,46.00
2019-03-08T03:08:20.693Z,46.00
2019-03-08T03:10:49.368Z,45.90
2019-03-08T03:13:18.363Z,45.90
2019-03-08T03:15:47.039Z,45.90
2019-03-08T03:18:15.700Z,46.00
2019-03-08T03:20:44.374Z,46.00
2019-03-08T03:23:13.026Z,45.90
2019-03-08T03:25:42.311Z,45.90
2019-03-08T03:28:10.904Z,45.90
2019-03-08T03:30:39.585Z,45.90
2019-03-08T03:33:08.239Z,45.90
2019-03-08T03:35:37.235Z,46.00
2019-03-08T03:38:05.896Z,45.90
2019-03-08T03:40:34.567Z,45.90
2019-03-08T03:43:03.229Z,45.90
2019-03-08T03:45:31.906Z,45.90
2019-03-08T03:48:00.899Z,45.90
2019-03-08T03:50:29.515Z,46.00
2019-03-08T03:52:58.095Z,45.90
2019-03-08T03:55:27.059Z,45.90
2019-03-08T03:57:55.711Z,45.90
2019-03-08T04:00:24.484Z,45.90
2019-03-08T04:02:53.731Z,45.90
2019-03-08T04:05:22.728Z,45.90
2019-03-08T04:07:51.450Z,45.90
2019-03-08T04:10:20.123Z,45.90
2019-03-08T04:12:49.103Z,45.90
2019-03-08T04:15:17.776Z,45.90
2019-03-08T04:17:46.736Z,45.90
2019-03-08T04:20:15.417Z,45.90
2019-03-08T04:22:44.079Z,45.90
2019-03-08T04:25:12.969Z,45.80
2019-03-08T04:27:41.835Z,45.90
2019-03-08T04:30:12.567Z,45.90
2019-03-08T04:32:41.692Z,45.80
2019-03-08T04:35:10.672Z,46.50
2019-03-08T04:37:39.354Z,46.00
2019-03-08T04:40:08.727Z,46.10
2019-03-08T04:42:37.427Z,46.10
2019-03-08T04:45:06.387Z,46.20
2019-03-08T04:47:35.149Z,46.10
2019-03-08T04:50:03.955Z,46.10
2019-03-08T04:52:32.628Z,46.30
2019-03-08T04:55:01.677Z,46.20
2019-03-08T04:57:30.355Z,46.80
2019-03-08T04:59:59.035Z,46.20
2019-03-08T05:02:28.049Z,46.10
2019-03-08T05:04:56.712Z,46.10
2019-03-08T05:07:25.393Z,46.00
2019-03-08T05:09:54.363Z,45.50
2019-03-08T05:12:23.405Z,46.00
2019-03-08T05:14:52.063Z,46.10
2019-03-08T05:17:20.736Z,46.30
2019-03-08T05:19:49.669Z,46.20
2019-03-08T05:22:18.344Z,46.30
2019-03-08T05:24:47.096Z,46.20
2019-03-08T05:27:15.824Z,46.20
2019-03-08T05:29:44.824Z,46.10
2019-03-08T05:32:13.756Z,46.30
2019-03-08T05:34:42.344Z,46.30
2019-03-08T05:37:11.111Z,46.20
2019-03-08T05:39:39.763Z,46.20
2019-03-08T05:42:08.776Z,46.20
2019-03-08T05:44:37.765Z,46.30
2019-03-08T05:47:06.435Z,46.30
2019-03-08T05:49:35.091Z,46.40
2019-03-08T05:52:03.779Z,46.30
2019-03-08T05:54:33.121Z,46.20
2019-03-08T05:57:01.792Z,46.20
2019-03-08T05:59:30.445Z,46.30
2019-03-08T06:01:59.110Z,46.40
2019-03-08T06:04:27.772Z,46.30
2019-03-08T06:06:56.461Z,46.40
2019-03-08T06:09:25.748Z,46.30
2019-03-08T06:11:54.957Z,46.40
2019-03-08T06:14:23.783Z,46.40
2019-03-08T06:16:52.831Z,46.50
2019-03-08T06:19:21.495Z,46.40
2019-03-08T06:21:50.172Z,46.40
2019-03-08T06:24:18.828Z,46.40
2019-03-08T06:26:47.784Z,46.40
2019-03-08T06:29:18.151Z,46.40
2019-03-08T06:31:47.718Z,46.40
2019-03-08T06:34:16.369Z,46.40
2019-03-08T06:36:45.119Z,46.40
2019-03-08T06:39:13.780Z,46.40
2019-03-08T06:41:42.459Z,46.40
2019-03-08T06:44:11.456Z,46.40
2019-03-08T06:46:40.359Z,46.40
2019-03-08T06:49:09.015Z,46.50
2019-03-08T06:51:37.707Z,46.40
2019-03-08T06:54:06.372Z,46.60
2019-03-08T06:56:35.415Z,46.40
2019-03-08T06:59:11.815Z,46.30
2019-03-08T07:01:41.756Z,46.40
2019-03-08T07:04:10.411Z,46.40
2019-03-08T07:06:39.096Z,46.40
2019-03-08T07:09:07.971Z,46.30
2019-03-08T07:11:36.644Z,46.40
2019-03-08T07:14:05.624Z,46.30
2019-03-08T07:16:34.309Z,46.30
2019-03-08T07:19:03.308Z,46.30
2019-03-08T07:21:53.928Z,46.30
2019-03-08T07:24:42.720Z,46.30
2019-03-08T07:27:48.835Z,46.30
2019-03-08T07:30:39.839Z,46.30
2019-03-08T07:33:30.643Z,46.30
2019-03-08T07:36:21.579Z,46.30
2019-03-08T07:39:01.891Z,46.40
2019-03-08T07:41:37.868Z,46.40
2019-03-08T07:44:25.993Z,46.50
2019-03-08T07:47:07.396Z,46.50
2019-03-08T07:49:49.165Z,46.40
2019-03-08T07:52:23.651Z,46.50
2019-03-08T07:55:11.339Z,46.60
2019-03-08T07:58:17.334Z,46.60
2019-03-08T08:01:08.203Z,46.60
2019-03-08T08:03:58.723Z,46.50
2019-03-08T08:06:49.656Z,46.60
2019-03-08T08:09:36.202Z,46.50
2019-03-08T08:12:33.316Z,46.60
2019-03-08T08:15:24.149Z,46.50
2019-03-08T08:18:05.346Z,46.50
2019-03-08T08:21:02.260Z,46.50
2019-03-08T08:23:38.251Z,46.50
2019-03-08T08:26:35.594Z,46.50
2019-03-08T08:29:20.281Z,46.50
2019-03-08T08:32:08.732Z,46.40
2019-03-08T08:34:44.775Z,46.30
2019-03-08T08:37:35.700Z,46.30
2019-03-08T08:40:33.016Z,46.20
2019-03-08T08:43:23.867Z,46.10
2019-03-08T08:46:13.572Z,45.90
2019-03-08T08:49:01.684Z,45.80
2019-03-08T08:51:55.904Z,45.70
2019-03-08T08:54:35.117Z,45.70
2019-03-08T08:57:22.343Z,45.60
2019-03-08T09:00:13.247Z,45.50
2019-03-08T09:03:00.587Z,45.30
2019-03-08T09:05:43.891Z,45.30
2019-03-08T09:08:31.924Z,45.10
2019-03-08T09:11:08.189Z,45.20
2019-03-08T09:13:53.566Z,45.10
2019-03-08T09:16:29.167Z,45.10
2019-03-08T09:19:19.980Z,45.10
2019-03-08T09:22:16.848Z,44.90
2019-03-08T09:25:00.472Z,44.80
2019-03-08T09:27:42.091Z,44.90
2019-03-08T09:30:34.283Z,44.80
2019-03-08T09:33:11.607Z,44.90
2019-03-08T09:36:00.680Z,43.70
2019-03-08T09:38:47.275Z,44.40
2019-03-08T09:41:27.222Z,44.50
2019-03-08T09:44:00.753Z,44.40
2019-03-08T09:46:50.273Z,44.10
2019-03-08T09:49:37.312Z,43.90
2019-03-08T09:52:26.299Z,44.20
2019-03-08T09:55:08.495Z,44.20
2019-03-08T09:57:43.619Z,43.90
2019-03-08T10:00:31.179Z,44.10
2019-03-08T10:03:34.451Z,43.90
2019-03-08T10:06:08.896Z,43.90
2019-03-08T10:08:49.156Z,44.40
2019-03-08T10:11:25.411Z,43.80
2019-03-08T10:14:10.999Z,43.90
2019-03-08T10:16:49.105Z,43.80
2019-03-08T10:19:26.595Z,43.70
2019-03-08T10:22:18.841Z,43.80
2019-03-08T10:25:05.671Z,43.80
2019-03-08T10:27:45.778Z,43.70
2019-03-08T10:30:33.434Z,43.60
2019-03-08T10:33:45.944Z,43.60
2019-03-08T10:36:35.132Z,44.10
2019-03-08T10:39:32.560Z,43.50
2019-03-08T10:42:20.384Z,43.60
2019-03-08T10:44:58.816Z,43.60
2019-03-08T10:47:56.022Z,43.60
2019-03-08T10:50:32.025Z,43.50
2019-03-08T10:53:26.536Z,43.50
2019-03-08T10:56:14.311Z,43.50
2019-03-08T10:59:10.371Z,43.50
2019-03-08T11:01:45.736Z,43.50
2019-03-08T11:04:33.501Z,43.60
2019-03-08T11:07:29.392Z,43.50
2019-03-08T11:10:21.780Z,43.60
2019-03-08T11:13:11.908Z,43.50
2019-03-08T11:15:58.932Z,43.50
2019-03-08T11:18:35.297Z,43.60
2019-03-08T11:21:09.459Z,43.60
2019-03-08T11:23:58.891Z,43.70
2019-03-08T11:26:43.973Z,43.60
2019-03-08T11:29:35.266Z,43.60
2019-03-08T11:32:22.936Z,43.60
2019-03-08T11:34:55.888Z,43.50
2019-03-08T11:37:55.711Z,43.40
2019-03-08T11:40:37.605Z,43.40
2019-03-08T11:43:16.946Z,43.40
2019-03-08T11:45:57.404Z,43.50
2019-03-08T11:48:45.095Z,43.60
2019-03-08T11:51:35.657Z,43.50
2019-03-08T11:54:29.647Z,43.50
2019-03-08T11:57:16.541Z,43.40
2019-03-08T12:00:02.308Z,43.40
2019-03-08T12:02:41.873Z,43.40
2019-03-08T12:05:20.676Z,43.50
2019-03-08T12:07:59.608Z,43.50
2019-03-08T12:10:56.360Z,43.50
2019-03-08T12:13:43.107Z,43.40
2019-03-08T12:16:34.068Z,43.30
2019-03-08T12:19:24.637Z,43.30
2019-03-08T12:21:59.388Z,43.40
2019-03-08T12:24:54.403Z,43.40
2019-03-08T12:27:29.644Z,43.40
2019-03-08T12:30:17.816Z,43.30
2019-03-08T12:32:55.059Z,43.40
2019-03-08T12:35:31.867Z,43.40
2019-03-08T12:38:25.632Z,43.40
2019-03-08T12:41:14.588Z,43.30
2019-03-08T12:44:08.719Z,43.40
2019-03-08T12:47:03.057Z,43.40
2019-03-08T12:49:50.825Z,43.50
2019-03-08T12:52:34.843Z,43.40
2019-03-08T12:55:21.748Z,43.40
2019-03-08T12:58:16.046Z,43.30
2019-03-08T13:00:56.484Z,43.40
2019-03-08T13:03:39.020Z,43.30
2019-03-08T13:06:26.024Z,43.30
2019-03-08T13:09:12.496Z,43.30
2019-03-08T13:11:41.164Z,43.40
2019-03-08T13:14:10.210Z,43.40
2019-03-08T13:16:39.176Z,43.40
2019-03-08T13:19:08.196Z,43.90
2019-03-08T13:21:36.883Z,43.30
2019-03-08T13:24:05.548Z,43.30
2019-03-08T13:26:34.476Z,43.30
2019-03-08T13:29:03.169Z,43.20
2019-03-08T13:31:32.116Z,43.30
2019-03-08T13:34:00.711Z,43.20
2019-03-08T13:36:29.399Z,43.20
2019-03-08T13:38:58.069Z,43.20
2019-03-08T13:41:26.759Z,43.30
2019-03-08T13:43:55.415Z,43.20
2019-03-08T13:46:24.100Z,42.70
2019-03-08T13:48:52.812Z,43.20
2019-03-08T13:51:21.418Z,43.20
2019-03-08T13:53:50.442Z,43.20
2019-03-08T13:56:19.109Z,43.20
2019-03-08T13:58:48.076Z,43.10
2019-03-08T14:01:16.752Z,43.10
2019-03-08T14:03:45.414Z,43.10
2019-03-08T14:06:14.364Z,43.00
2019-03-08T14:08:43.971Z,43.10
2019-03-08T14:11:12.652Z,43.10
2019-03-08T14:13:41.336Z,43.00
2019-03-08T14:16:10.031Z,43.10
2019-03-08T14:18:39.011Z,43.10
2019-03-08T14:21:07.675Z,43.00
2019-03-08T14:23:36.913Z,43.10
2019-03-08T14:26:05.924Z,43.00
2019-03-08T14:28:34.604Z,43.00
2019-03-08T14:31:12.490Z,43.00
2019-03-08T14:33:40.563Z,43.00
2019-03-08T14:36:09.535Z,43.00
2019-03-08T14:38:38.623Z,43.00
2019-03-08T14:41:25.303Z,42.90
2019-03-08T14:43:59.623Z,42.90
2019-03-08T14:46:41.995Z,42.90
2019-03-08T14:49:11.019Z,42.90
2019-03-08T14:51:39.695Z,42.90
2019-03-08T14:54:09.917Z,42.90
2019-03-08T14:56:38.987Z,42.90
2019-03-08T14:59:11.211Z,42.90
2019-03-08T15:01:39.968Z,42.90
2019-03-08T15:04:08.314Z,42.90
2019-03-08T15:06:37.000Z,42.90
2019-03-08T15:09:09.297Z,42.90
2019-03-08T15:11:39.101Z,42.90
2019-03-08T15:14:07.816Z,42.90
2019-03-08T15:16:39.081Z,43.00
2019-03-08T15:19:06.829Z,43.00
2019-03-08T15:21:37.128Z,43.10
2019-03-08T15:24:05.740Z,43.10
2019-03-08T15:26:34.417Z,43.10
2019-03-08T15:29:03.126Z,43.10
2019-03-08T15:31:31.776Z,43.20
2019-03-08T15:34:00.492Z,43.20
2019-03-08T15:36:29.179Z,43.30
2019-03-08T15:38:58.738Z,43.40
2019-03-08T15:41:28.140Z,43.40
2019-03-08T15:43:56.803Z,43.30
2019-03-08T15:46:26.818Z,43.50
2019-03-08T15:48:55.804Z,43.30
2019-03-08T15:51:25.476Z,43.50
2019-03-08T15:53:54.561Z,43.50
2019-03-08T15:56:23.359Z,43.60
2019-03-08T15:58:52.031Z,44.20
2019-03-08T16:01:20.716Z,43.80
2019-03-08T16:03:49.439Z,43.90
2019-03-08T16:06:19.669Z,44.10
2019-03-08T16:08:48.817Z,44.40
2019-03-08T16:11:17.487Z,44.40
2019-03-08T16:13:46.705Z,44.30
2019-03-08T16:16:15.371Z,44.50
2019-03-08T16:18:47.897Z,44.50
2019-03-08T16:21:14.415Z,44.60
2019-03-08T16:23:43.495Z,44.60
2019-03-08T16:26:12.484Z,44.70
2019-03-08T16:28:41.207Z,44.90
2019-03-08T16:31:25.582Z,44.80
2019-03-08T16:33:56.964Z,45.00
2019-03-08T16:36:42.640Z,45.10
2019-03-08T16:39:19.332Z,45.30
2019-03-08T16:42:06.425Z,45.30
2019-03-08T16:45:04.780Z,45.40
2019-03-08T16:47:52.529Z,45.30
2019-03-08T16:50:40.277Z,45.40
2019-03-08T16:53:16.264Z,45.50
2019-03-08T16:56:11.779Z,45.60
2019-03-08T16:59:11.579Z,45.80
2019-03-08T17:02:08.363Z,45.80
2019-03-08T17:04:57.195Z,45.90
2019-03-08T17:08:03.351Z,45.80
2019-03-08T17:10:46.076Z,45.60
2019-03-08T17:13:32.672Z,45.70
2019-03-08T17:16:19.598Z,45.70
2019-03-08T17:18:56.355Z,45.90
2019-03-08T17:21:42.884Z,45.90
2019-03-08T17:24:18.208Z,46.10
2019-03-08T17:26:51.007Z,46.00
2019-03-08T17:29:29.314Z,46.20
2019-03-08T17:32:19.111Z,46.20
2019-03-08T17:35:07.736Z,46.30
2019-03-08T17:37:57.964Z,46.30
2019-03-08T17:40:36.363Z,46.30
2019-03-08T17:43:10.672Z,46.20
2019-03-08T17:45:54.016Z,46.20
2019-03-08T17:48:32.515Z,46.30
2019-03-08T17:51:29.386Z,46.30
2019-03-08T17:54:11.984Z,46.20
2019-03-08T17:56:52.527Z,46.20
2019-03-08T17:59:46.195Z,46.20
2019-03-08T18:02:27.384Z,46.20
2019-03-08T18:05:05.913Z,46.10
2019-03-08T18:07:52.396Z,46.20
2019-03-08T18:10:39.242Z,46.20
2019-03-08T18:13:21.029Z,46.20
2019-03-08T18:15:55.670Z,46.10
2019-03-08T18:18:32.307Z,46.20
2019-03-08T18:21:07.888Z,46.20
2019-03-08T18:23:44.526Z,46.30
2019-03-08T18:26:30.344Z,46.20
2019-03-08T18:29:05.864Z,46.30
2019-03-08T18:32:11.787Z,46.20
2019-03-08T18:35:00.589Z,46.20
2019-03-08T18:37:51.388Z,46.90
2019-03-08T18:40:48.045Z,46.40
2019-03-08T18:43:42.363Z,46.40
2019-03-08T18:46:25.148Z,46.40
2019-03-08T18:49:12.199Z,46.90
2019-03-08T18:51:51.592Z,46.40
2019-03-08T18:54:39.379Z,46.40
2019-03-08T18:57:26.555Z,46.40
2019-03-08T19:00:23.263Z,46.30
2019-03-08T19:03:11.241Z,46.30
2019-03-08T19:06:03.172Z,46.30
2019-03-08T19:08:39.119Z,46.20
2019-03-08T19:11:14.485Z,46.20
2019-03-08T19:14:02.548Z,46.20
2019-03-08T19:16:37.467Z,46.10
2019-03-08T19:19:25.224Z,46.10
2019-03-08T19:22:15.979Z,46.10
2019-03-08T19:25:07.012Z,46.10
2019-03-08T19:27:53.099Z,46.10
2019-03-08T19:30:40.775Z,46.10
2019-03-08T19:33:31.839Z,46.00
2019-03-08T19:36:10.339Z,46.10
2019-03-08T19:39:13.392Z,46.10
2019-03-08T19:41:53.371Z,46.10
2019-03-08T19:44:30.782Z,46.20
2019-03-08T19:47:11.305Z,46.10
2019-03-08T19:49:56.512Z,46.10
2019-03-08T19:52:37.284Z,46.10
2019-03-08T19:55:12.383Z,46.20
2019-03-08T19:58:00.151Z,46.00
2019-03-08T20:00:45.615Z,46.00
2019-03-08T20:03:42.755Z,45.90
2019-03-08T20:06:22.450Z,45.90
2019-03-08T20:09:13.334Z,45.90
2019-03-08T20:12:12.948Z,45.90
2019-03-08T20:14:49.964Z,45.90
2019-03-08T20:17:35.924Z,46.00
2019-03-08T20:20:36.368Z,46.00
2019-03-08T20:23:18.149Z,45.90
2019-03-08T20:26:04.527Z,46.00
2019-03-08T20:28:45.227Z,46.00
2019-03-08T20:31:35.291Z,46.00
2019-03-08T20:34:23.080Z,46.00
2019-03-08T20:37:10.763Z,46.00
2019-03-08T20:39:52.472Z,46.00
2019-03-08T20:42:40.155Z,45.90
2019-03-08T20:45:40.541Z,45.90
2019-03-08T20:48:09.716Z,45.90
2019-03-08T20:50:38.308Z,45.90
2019-03-08T20:53:06.999Z,45.90
2019-03-08T20:55:35.884Z,45.90
2019-03-08T20:58:04.547Z,45.90
2019-03-08T21:00:33.308Z,45.90
2019-03-08T21:03:02.247Z,45.80
2019-03-08T21:05:30.907Z,45.90
2019-03-08T21:07:59.593Z,45.90
2019-03-08T21:10:28.443Z,45.90
2019-03-08T21:12:57.404Z,45.80
2019-03-08T21:15:26.347Z,45.80
2019-03-08T21:17:54.927Z,45.90
2019-03-08T21:20:23.536Z,45.90
2019-03-08T21:22:52.191Z,45.90
2019-03-08T21:25:20.812Z,45.80
2019-03-08T21:27:49.464Z,45.80
2019-03-08T21:30:18.411Z,45.90
2019-03-08T21:32:47.031Z,45.90
2019-03-08T21:35:15.691Z,45.90
2019-03-08T21:37:44.927Z,46.00
2019-03-08T21:40:13.592Z,46.00
2019-03-08T21:42:42.560Z,46.00
2019-03-08T21:45:12.052Z,46.00
2019-03-08T21:47:41.070Z,46.00
2019-03-08T21:50:11.432Z,46.30
2019-03-08T21:52:40.475Z,46.00
2019-03-08T21:55:09.161Z,46.00
2019-03-08T21:57:38.164Z,46.00
2019-03-08T22:00:12.332Z,46.00
2019-03-08T22:02:41.091Z,46.00
2019-03-08T22:05:09.747Z,45.90
2019-03-08T22:07:38.731Z,46.00
2019-03-08T22:10:15.007Z,46.10
2019-03-08T22:12:43.623Z,46.10
2019-03-08T22:15:12.697Z,46.00
2019-03-08T22:17:41.357Z,46.10
2019-03-08T22:20:10.259Z,46.20
2019-03-08T22:22:38.920Z,46.10
2019-03-08T22:25:07.688Z,46.20
2019-03-08T22:27:36.367Z,46.10
2019-03-08T22:30:06.612Z,46.00
2019-03-08T22:32:35.275Z,46.00
2019-03-08T22:35:04.640Z,46.00
2019-03-08T22:37:33.836Z,46.00
2019-03-08T22:40:02.495Z,46.00
2019-03-08T22:42:31.175Z,46.00
2019-03-08T22:44:59.779Z,46.00
2019-03-08T22:47:28.440Z,46.10
2019-03-08T22:49:57.085Z,46.10
2019-03-08T22:52:25.746Z,46.10
2019-03-08T22:54:54.701Z,46.10
2019-03-08T22:57:23.377Z,46.10
2019-03-08T22:59:52.042Z,46.10
2019-03-08T23:02:20.888Z,46.10
2019-03-08T23:04:49.888Z,46.10
2019-03-08T23:07:18.540Z,46.20
2019-03-08T23:09:47.463Z,46.20
2019-03-08T23:12:16.139Z,46.10
2019-03-08T23:14:44.728Z,46.20
2019-03-08T23:17:13.636Z,46.10
2019-03-08T23:19:42.318Z,46.10
2019-03-08T23:22:10.971Z,46.20
2019-03-08T23:24:40.012Z,46.20
2019-03-08T23:27:31.591Z,46.20
2019-03-08T23:30:04.824Z,46.30
2019-03-08T23:32:36.977Z,46.20
2019-03-08T23:35:05.823Z,46.30
2019-03-08T23:37:34.874Z,46.20
2019-03-08T23:40:03.967Z,46.20
2019-03-08T23:42:32.919Z,46.20
2019-03-08T23:45:01.543Z,46.10
2019-03-08T23:47:30.195Z,46.20
2019-03-08T23:50:00.329Z,46.20
2019-03-08T23:52:29.347Z,46.20
2019-03-08T23:54:58.208Z,46.00
2019-03-08T23:57:26.860Z,46.20
2019-03-08T23:59:55.621Z,46.10
